PHNY METAR and TAF | Updated Today

PHNY METAR

Lanai Airport

Observation time: 49 min. ago

PHNY 290956Z AUTO 07003KT 10SM BKN014 BKN020 19/ A3011 RMK AO2 SLP177 T0189 402500189 $

Need help? Read our tutorial on how to read METARs or read the parsed version below.

Lanai Airport (PHNY) METAR

  • Weather conditions on Sun, 29 May 2022 09:56:00 +0000 (49 min. ago):
  • Present conditions: Dry
  • Clouds: Broken sky at 427 meters; broken sky at 610 meters
  • Visibility: 16093 meters
  • Wind: 70 degrees at 3 knots
  • Temperature: 19 celsius
  • Dew point: celsius
  • Pressure: 30.11 inHg
  • Remarks: AO2 SLP177 T0189 402500189 $


Useful to know...

PHNY TAF

Lanai Airport

PHNY 290535Z 2906/3006 06007KT P6SM SCT025 BKN040 FM292000 24008KT P6SM SCT020 BKN035 FM300400 06007KT P6SM SCT025 BKN040
Observation time: 5:10 hr. ago
Need help? Read our tutorial on how to read TAFs or read the parsed version below.

Parsed version of TAF for Lanai Airport (PHNY)

  • From 29 May at 06:00 UTC, to day 30 of the month at 06:00 UTC
  • Clouds: Scattered at 762 meters; broken sky at 1219 meters
  • Wind: 60 degrees at 7
  • From day 29 of the month at 20:00 UTC
  • Clouds: Scattered at 610 meters; broken sky at 1067 meters
  • Wind: 240 degrees at 8
  • From day 30 of the month at 04:00 UTC
  • Clouds: Scattered at 762 meters; broken sky at 1219 meters
  • Wind: 60 degrees at 7

Airports near PHNY